Winchester, Kentucky
Current Conditions -  °F | °C
As of 4:35 AM on Sunday 26 Oct 2014 (Local Time) from KIOB Reporting Station
Clear Clear  
Wind Chill: 54°   Ceiling: Unl
Heat Index: 54°   Visibility: 10mi
Dew Point: 50°   Wind: 6mph
Humidity: 88%   Direction: 300°WNW
Pressure: 29.98"   Gusts: NA
Location:  37.99°N, 84.18°W
Report Text: KIOB 260835Z AUTO 30005KT 10SM CLR 12/10 A2998 RMK AO2
Loading
Personal Weather Stations






























Interactive Weather Map
Tropical Storm Tracking
New forecast layout! Learn more

10-Day Weather Forecast

Advertisements
Track Severe Weather on mobile